createdAt,value
2019-01-16T00:00:54.117Z,14.83
2019-01-16T00:03:51.237Z,11.37
2019-01-16T00:06:40.109Z,11.30
2019-01-16T00:09:39.241Z,12.93
2019-01-16T00:12:20.510Z,10.77
2019-01-16T00:15:08.663Z,14.03
2019-01-16T00:17:57.082Z,11.13
2019-01-16T00:20:45.743Z,11.37
2019-01-16T00:23:38.511Z,16.30
2019-01-16T00:26:27.867Z,16.47
2019-01-16T00:29:30.057Z,12.27
2019-01-16T00:32:20.349Z,14.47
2019-01-16T00:35:08.765Z,13.30
2019-01-16T00:38:13.702Z,9.70
2019-01-16T00:41:03.282Z,10.87
2019-01-16T00:43:56.058Z,13.23
2019-01-16T00:46:35.983Z,11.70
2019-01-16T00:49:18.825Z,12.87
2019-01-16T00:52:20.902Z,10.50
2019-01-16T00:55:10.354Z,14.83
2019-01-16T00:58:02.989Z,12.50
2019-01-16T01:00:59.470Z,11.77
2019-01-16T01:03:40.728Z,12.67
2019-01-16T01:06:36.206Z,14.43
2019-01-16T01:09:45.990Z,8.67
2019-01-16T01:12:50.603Z,11.37
2019-01-16T01:15:58.419Z,13.47
2019-01-16T01:18:48.807Z,16.17
2019-01-16T01:21:44.330Z,12.77
2019-01-16T01:24:52.073Z,10.23
2019-01-16T01:27:50.555Z,9.67
2019-01-16T01:30:58.459Z,16.60
2019-01-16T01:33:46.937Z,13.27
2019-01-16T01:36:42.285Z,15.33
2019-01-16T01:39:30.428Z,10.47
2019-01-16T01:42:18.703Z,9.33
2019-01-16T01:45:17.424Z,14.67
2019-01-16T01:48:03.285Z,10.93
2019-01-16T01:51:07.081Z,15.83
2019-01-16T01:53:56.865Z,10.40
2019-01-16T01:56:52.522Z,10.20
2019-01-16T01:59:51.304Z,10.97
2019-01-16T02:02:40.658Z,10.20
2019-01-16T02:05:42.522Z,14.67
2019-01-16T02:08:35.102Z,11.07
2019-01-16T02:11:37.537Z,8.60
2019-01-16T02:14:26.872Z,11.07
2019-01-16T02:17:22.508Z,9.73
2019-01-16T02:20:21.432Z,6.03
2019-01-16T02:23:09.490Z,9.83
2019-01-16T02:26:14.194Z,13.30
2019-01-16T02:29:03.184Z,10.70
2019-01-16T02:31:55.909Z,10.77
2019-01-16T02:34:34.854Z,13.20
2019-01-16T02:37:30.749Z,10.10
2019-01-16T02:40:18.888Z,6.93
2019-01-16T02:43:07.886Z,8.30
2019-01-16T02:45:57.667Z,7.83
2019-01-16T02:48:55.647Z,7.87
2019-01-16T02:51:37.647Z,9.60
2019-01-16T02:54:23.126Z,4.93
2019-01-16T02:57:19.228Z,6.23
2019-01-16T03:00:04.023Z,12.60
2019-01-16T03:02:52.363Z,4.90
2019-01-16T03:05:41.833Z,5.43
2019-01-16T03:08:38.855Z,4.60
2019-01-16T03:11:34.870Z,5.37
2019-01-16T03:14:24.765Z,3.13
2019-01-16T03:17:20.287Z,7.87
2019-01-16T03:20:10.519Z,6.93
2019-01-16T03:23:18.742Z,3.80
2019-01-16T03:25:57.390Z,4.10
2019-01-16T03:28:36.585Z,5.10
2019-01-16T03:31:28.981Z,4.10
2019-01-16T03:34:17.537Z,3.47
2019-01-16T03:37:05.859Z,2.77
2019-01-16T03:39:54.124Z,5.37
2019-01-16T03:42:34.703Z,5.23
2019-01-16T03:45:19.665Z,4.67
2019-01-16T03:48:24.300Z,6.93
2019-01-16T03:51:13.875Z,3.27
2019-01-16T03:54:02.835Z,4.77
2019-01-16T03:56:51.724Z,3.40
2019-01-16T03:59:40.858Z,2.50
2019-01-16T04:02:33.708Z,6.40
2019-01-16T04:05:22.491Z,3.20
2019-01-16T04:08:10.647Z,5.27
2019-01-16T04:10:59.300Z,5.17
2019-01-16T04:13:48.270Z,3.07
2019-01-16T04:16:43.931Z,1.83
2019-01-16T04:19:32.032Z,5.30
2019-01-16T04:22:18.636Z,2.87
2019-01-16T04:25:26.523Z,3.27
2019-01-16T04:28:14.996Z,3.33
2019-01-16T04:31:13.971Z,4.27
2019-01-16T04:34:02.339Z,4.00
2019-01-16T04:36:50.670Z,2.63
2019-01-16T04:39:29.179Z,1.93
2019-01-16T04:42:14.159Z,1.57
2019-01-16T04:44:54.937Z,2.03
2019-01-16T04:47:44.483Z,2.00
2019-01-16T04:50:33.839Z,3.67
2019-01-16T04:53:23.445Z,3.07
2019-01-16T04:56:22.567Z,6.27
2019-01-16T04:59:14.995Z,3.97
2019-01-16T05:02:19.847Z,3.60
2019-01-16T05:05:08.374Z,3.80
2019-01-16T05:07:58.257Z,2.27
2019-01-16T05:10:46.939Z,1.40
2019-01-16T05:13:39.362Z,2.40
2019-01-16T05:16:28.934Z,3.70
2019-01-16T05:19:38.821Z,4.13
2019-01-16T05:22:26.822Z,3.93
2019-01-16T05:25:17.150Z,5.33
2019-01-16T05:28:06.730Z,4.57
2019-01-16T05:31:13.902Z,2.97
2019-01-16T05:34:02.567Z,5.10
2019-01-16T05:36:58.290Z,5.50
2019-01-16T05:39:46.761Z,5.63
2019-01-16T05:42:40.096Z,4.80
2019-01-16T05:45:45.262Z,7.00
2019-01-16T05:48:41.081Z,6.70
2019-01-16T05:51:22.630Z,5.97
2019-01-16T05:54:15.990Z,7.97
2019-01-16T05:57:09.059Z,6.63
2019-01-16T05:59:57.840Z,4.63
2019-01-16T06:03:05.357Z,5.00
2019-01-16T06:05:57.596Z,5.40
2019-01-16T06:08:49.648Z,5.20
2019-01-16T06:11:52.084Z,6.43
2019-01-16T06:14:44.386Z,5.30
2019-01-16T06:17:32.612Z,8.83
2019-01-16T06:20:28.480Z,8.33
2019-01-16T06:23:16.594Z,10.57
2019-01-16T06:25:56.750Z,7.60
2019-01-16T06:28:52.943Z,7.77
2019-01-16T06:31:42.417Z,11.67
2019-01-16T06:34:47.443Z,11.67
2019-01-16T06:37:48.245Z,12.90
2019-01-16T06:40:41.131Z,9.57
2019-01-16T06:43:26.091Z,10.73
2019-01-16T06:46:08.101Z,15.83
2019-01-16T06:49:03.719Z,20.70
2019-01-16T06:51:43.979Z,15.33
2019-01-16T06:54:37.229Z,18.77
2019-01-16T06:57:25.442Z,14.17
2019-01-16T07:00:20.341Z,11.33
2019-01-16T07:03:13.708Z,11.80
2019-01-16T07:06:03.331Z,11.33
2019-01-16T07:08:51.983Z,9.60
2019-01-16T07:11:46.544Z,15.00
2019-01-16T07:14:42.905Z,13.77
2019-01-16T07:17:31.136Z,20.33
2019-01-16T07:20:32.894Z,21.37
2019-01-16T07:23:21.819Z,18.67
2019-01-16T07:26:17.737Z,17.33
2019-01-16T07:29:07.135Z,15.87
2019-01-16T07:32:02.767Z,17.60
2019-01-16T07:34:55.063Z,20.83
2019-01-16T07:37:33.438Z,17.47
2019-01-16T07:40:17.259Z,19.90
2019-01-16T07:43:05.869Z,19.43
2019-01-16T07:46:04.690Z,19.87
2019-01-16T07:49:03.314Z,24.50
2019-01-16T07:51:52.918Z,18.77
2019-01-16T07:54:37.453Z,18.57
2019-01-16T07:57:26.123Z,14.37
2019-01-16T08:00:14.120Z,15.80
2019-01-16T08:03:02.724Z,12.07
2019-01-16T08:05:51.174Z,17.87
2019-01-16T08:08:46.657Z,15.97
2019-01-16T08:11:34.635Z,18.33
2019-01-16T08:14:30.241Z,20.47
2019-01-16T08:17:35.059Z,21.23
2019-01-16T08:20:32.589Z,19.50
2019-01-16T08:23:22.340Z,16.03
2019-01-16T08:26:11.919Z,16.57
2019-01-16T08:29:01.617Z,13.40
2019-01-16T08:32:06.725Z,12.47
2019-01-16T08:34:56.397Z,11.40
2019-01-16T08:37:41.469Z,16.80
2019-01-16T08:40:29.892Z,17.80
2019-01-16T08:43:11.382Z,18.70
2019-01-16T08:46:16.081Z,16.63
2019-01-16T08:49:09.056Z,17.37
2019-01-16T08:51:58.881Z,22.23
2019-01-16T08:55:06.737Z,18.63
2019-01-16T08:58:02.283Z,15.37
2019-01-16T09:00:59.061Z,16.13
2019-01-16T09:03:51.344Z,14.83
2019-01-16T09:06:32.808Z,16.27
2019-01-16T09:09:25.164Z,14.50
2019-01-16T09:12:14.830Z,17.37
2019-01-16T09:15:22.915Z,13.60
2019-01-16T09:18:24.646Z,12.57
2019-01-16T09:21:17.118Z,15.73
2019-01-16T09:24:14.928Z,15.50
2019-01-16T09:27:03.445Z,16.10
2019-01-16T09:30:05.120Z,20.63
2019-01-16T09:33:05.018Z,16.93
2019-01-16T09:35:53.406Z,20.93
2019-01-16T09:38:41.528Z,22.23
2019-01-16T09:41:23.374Z,16.70
2019-01-16T09:44:04.324Z,13.47
2019-01-16T09:46:54.053Z,16.27
2019-01-16T09:49:49.670Z,13.27
2019-01-16T09:52:54.354Z,23.60
2019-01-16T09:55:44.693Z,28.70
2019-01-16T09:58:43.347Z,23.63
2019-01-16T10:01:32.831Z,29.37
2019-01-16T10:04:20.907Z,27.63
2019-01-16T10:07:22.975Z,29.23
2019-01-16T10:10:30.687Z,21.33
2019-01-16T10:13:09.245Z,24.77
2019-01-16T10:16:11.203Z,26.37
2019-01-16T10:19:00.620Z,25.70
2019-01-16T10:21:39.511Z,29.37
2019-01-16T10:24:35.031Z,32.73
2019-01-16T10:27:24.525Z,27.47
2019-01-16T10:30:23.503Z,29.37
2019-01-16T10:33:03.047Z,32.47
2019-01-16T10:35:45.088Z,31.60
2019-01-16T10:38:38.146Z,33.17
2019-01-16T10:41:30.684Z,33.63
2019-01-16T10:47:32.014Z,34.93
2019-01-16T10:50:20.598Z,34.27
2019-01-16T10:53:25.113Z,36.53
2019-01-16T10:56:14.718Z,37.00
2019-01-16T10:59:04.114Z,35.33
2019-01-16T11:01:50.984Z,39.90
2019-01-16T11:04:39.512Z,30.80
2019-01-16T11:07:32.130Z,39.90
2019-01-16T11:10:39.927Z,36.27
2019-01-16T11:13:37.350Z,36.27
2019-01-16T11:16:32.670Z,37.47
2019-01-16T11:19:22.331Z,32.17
2019-01-16T11:22:07.931Z,34.67
2019-01-16T11:24:52.355Z,32.17
2019-01-16T11:27:45.473Z,31.73
2019-01-16T11:30:35.617Z,34.07
2019-01-16T11:33:24.209Z,32.67
2019-01-16T11:36:49.425Z,32.50
2019-01-16T11:39:49.231Z,35.97
2019-01-16T11:42:57.963Z,35.03
2019-01-16T11:45:46.073Z,43.20
2019-01-16T11:48:45.002Z,40.50
2019-01-16T11:51:52.814Z,41.33
2019-01-16T11:54:51.350Z,37.70
2019-01-16T11:57:56.125Z,31.17
2019-01-16T12:00:48.507Z,39.90
2019-01-16T12:03:46.726Z,38.27
2019-01-16T12:06:42.421Z,32.17
2019-01-16T12:09:37.566Z,35.83
2019-01-16T12:12:26.930Z,34.67
2019-01-16T12:15:28.410Z,36.87
2019-01-16T12:18:20.916Z,41.77
2019-01-16T12:21:26.571Z,34.90
2019-01-16T12:24:21.359Z,34.23
2019-01-16T12:27:13.614Z,33.80
2019-01-16T12:30:21.408Z,34.10
2019-01-16T12:33:29.164Z,37.47
2019-01-16T12:36:32.000Z,30.73
2019-01-16T12:39:33.840Z,31.27
2019-01-16T12:42:54.014Z,31.83
2019-01-16T12:45:43.855Z,33.43
2019-01-16T12:48:28.041Z,29.20
2019-01-16T12:51:11.989Z,29.87
2019-01-16T12:53:56.720Z,28.20
2019-01-16T12:56:44.991Z,32.43
2019-01-16T12:59:49.696Z,27.77
2019-01-16T13:02:42.310Z,29.37
2019-01-16T13:05:31.070Z,32.50
2019-01-16T13:08:20.429Z,35.60
2019-01-16T13:11:10.759Z,26.30
2019-01-16T13:13:52.175Z,30.53
2019-01-16T13:16:53.874Z,28.97
2019-01-16T13:19:47.297Z,24.80
2019-01-16T13:22:57.841Z,24.40
2019-01-16T13:25:53.041Z,25.47
2019-01-16T13:28:41.255Z,25.57
2019-01-16T13:31:33.757Z,25.60
2019-01-16T13:34:29.795Z,23.47
2019-01-16T13:37:25.168Z,27.30
2019-01-16T13:40:14.721Z,23.60
2019-01-16T13:42:54.181Z,23.20
2019-01-16T13:45:42.431Z,22.67
2019-01-16T13:48:31.971Z,22.70
2019-01-16T13:51:30.753Z,20.93
2019-01-16T13:54:23.084Z,22.27
2019-01-16T13:57:15.479Z,33.50
2019-01-16T14:00:17.491Z,27.10
2019-01-16T14:03:09.878Z,24.17
2019-01-16T14:05:54.452Z,26.80
2019-01-16T14:08:56.020Z,25.27
2019-01-16T14:11:48.292Z,25.97
2019-01-16T14:14:56.180Z,19.50
2019-01-16T14:17:47.823Z,23.37
2019-01-16T14:20:49.624Z,27.17
2019-01-16T14:23:45.185Z,18.80
2019-01-16T14:26:43.574Z,22.17
2019-01-16T14:29:31.718Z,21.67
2019-01-16T14:32:24.474Z,24.20
2019-01-16T14:35:12.830Z,25.43
2019-01-16T14:38:02.257Z,29.10
2019-01-16T14:40:51.892Z,24.23
2019-01-16T14:43:53.482Z,29.47
2019-01-16T14:46:46.527Z,30.03
2019-01-16T14:49:45.576Z,31.43
2019-01-16T14:52:32.477Z,33.30
2019-01-16T14:55:40.526Z,38.87
2019-01-16T14:58:36.293Z,39.10
2019-01-16T15:01:28.277Z,38.10
2019-01-16T15:04:16.376Z,41.30
2019-01-16T15:07:05.783Z,41.27
2019-01-16T15:09:53.383Z,44.70
2019-01-16T15:12:43.891Z,43.63
2019-01-16T15:15:45.628Z,47.60
2019-01-16T15:18:44.661Z,46.00
2019-01-16T15:21:46.519Z,48.33
2019-01-16T15:24:31.928Z,52.07
2019-01-16T15:27:22.024Z,51.83
2019-01-16T15:30:10.922Z,49.30
2019-01-16T15:33:06.498Z,54.20
2019-01-16T15:35:58.211Z,51.83
2019-01-16T15:38:44.484Z,52.47
2019-01-16T15:41:33.393Z,49.47
2019-01-16T15:44:25.660Z,50.80
2019-01-16T15:47:14.120Z,51.10
2019-01-16T15:50:03.566Z,48.53
2019-01-16T15:53:08.342Z,47.77
2019-01-16T15:55:56.660Z,50.10
2019-01-16T15:58:48.876Z,50.40
2019-01-16T16:01:34.040Z,47.93
2019-01-16T16:04:22.958Z,46.37
2019-01-16T16:07:08.671Z,45.87
2019-01-16T16:09:58.747Z,50.93
2019-01-16T16:12:54.052Z,48.13
2019-01-16T16:15:51.778Z,50.17
2019-01-16T16:19:00.939Z,46.57
2019-01-16T16:21:50.507Z,51.23
2019-01-16T16:24:38.813Z,51.70
2019-01-16T16:27:37.675Z,46.97
2019-01-16T16:30:28.859Z,51.73
2019-01-16T16:33:20.415Z,50.67
2019-01-16T16:36:09.173Z,47.37
2019-01-16T16:39:02.570Z,49.43
2019-01-16T16:41:52.005Z,50.83
2019-01-16T16:44:50.530Z,45.63
2019-01-16T16:47:42.969Z,47.67
2019-01-16T16:50:33.915Z,50.00
2019-01-16T16:53:32.762Z,53.23
2019-01-16T16:56:25.488Z,52.23
2019-01-16T16:59:27.289Z,47.17
2019-01-16T17:02:23.790Z,48.80
2019-01-16T17:05:13.569Z,47.70
2019-01-16T17:08:09.449Z,45.57
2019-01-16T17:10:57.538Z,44.23
2019-01-16T17:13:49.185Z,43.20
2019-01-16T17:16:45.858Z,40.70
2019-01-16T17:19:37.871Z,39.37
2019-01-16T17:22:32.470Z,42.50
2019-01-16T17:25:14.065Z,44.07
2019-01-16T17:28:02.522Z,43.77
2019-01-16T17:30:59.043Z,44.47
2019-01-16T17:33:38.390Z,41.00
2019-01-16T17:36:19.019Z,46.93
2019-01-16T17:39:07.501Z,46.40
2019-01-16T17:41:59.205Z,48.23
2019-01-16T17:44:56.909Z,42.27
2019-01-16T17:47:49.551Z,42.53
2019-01-16T17:50:43.857Z,39.53
2019-01-16T17:53:33.727Z,40.50
2019-01-16T17:56:35.768Z,43.80
2019-01-16T17:59:37.573Z,40.13
2019-01-16T18:02:19.527Z,38.40
2019-01-16T18:05:03.205Z,38.40
2019-01-16T18:07:51.839Z,38.67
2019-01-16T18:10:42.257Z,42.60
2019-01-16T18:13:32.071Z,40.17
2019-01-16T18:16:28.225Z,40.47
2019-01-16T18:19:29.076Z,38.57
2019-01-16T18:22:13.333Z,41.60
2019-01-16T18:25:08.989Z,39.67
2019-01-16T18:27:58.639Z,41.13
2019-01-16T18:30:57.239Z,56.00
2019-01-16T18:33:46.993Z,42.83
2019-01-16T18:36:42.495Z,41.87
2019-01-16T18:39:47.477Z,40.47
2019-01-16T18:42:32.594Z,38.90
2019-01-16T18:45:21.315Z,40.07
2019-01-16T18:48:08.093Z,38.60
2019-01-16T18:50:51.824Z,39.50
2019-01-16T18:53:50.392Z,38.60
2019-01-16T18:56:49.114Z,36.73
2019-01-16T18:59:40.038Z,40.27
2019-01-16T19:02:39.220Z,36.50
2019-01-16T19:05:35.185Z,42.80
2019-01-16T19:08:23.520Z,33.80
2019-01-16T19:11:10.106Z,36.77
2019-01-16T19:14:09.298Z,37.50
2019-01-16T19:16:58.191Z,36.07
2019-01-16T19:19:53.970Z,35.40
2019-01-16T19:22:58.167Z,36.17
2019-01-16T19:25:50.240Z,34.37
2019-01-16T19:28:45.990Z,39.43
2019-01-16T19:31:33.858Z,33.47
2019-01-16T19:34:22.149Z,36.43
2019-01-16T19:37:23.753Z,33.47
2019-01-16T19:40:21.317Z,33.83
2019-01-16T19:43:10.367Z,36.40
2019-01-16T19:45:58.875Z,39.93
2019-01-16T19:51:59.136Z,36.17
2019-01-16T19:54:48.841Z,39.53
2019-01-16T19:57:47.037Z,40.77
2019-01-16T20:00:37.769Z,41.70
2019-01-16T20:03:36.883Z,38.87
2019-01-16T20:06:25.153Z,37.87
2019-01-16T20:09:26.674Z,38.57
2019-01-16T20:12:16.767Z,38.67
2019-01-16T20:15:22.245Z,39.80
2019-01-16T20:18:24.273Z,36.43
2019-01-16T20:21:09.128Z,42.37
2019-01-16T20:24:01.708Z,36.63
2019-01-16T20:26:55.524Z,35.93
2019-01-16T20:29:48.196Z,38.80
2019-01-16T20:32:42.228Z,39.90
2019-01-16T20:35:22.880Z,39.97
2019-01-16T20:38:03.072Z,36.93
2019-01-16T20:40:57.180Z,37.13
2019-01-16T20:43:59.104Z,38.03
2019-01-16T20:46:48.322Z,37.13
2019-01-16T20:49:38.938Z,40.93
2019-01-16T20:52:46.668Z,37.33
2019-01-16T20:55:36.292Z,36.77
2019-01-16T20:58:25.866Z,38.10
2019-01-16T21:01:24.718Z,34.20
2019-01-16T21:04:20.541Z,34.27
2019-01-16T21:07:12.929Z,35.23
2019-01-16T21:10:05.319Z,33.83
2019-01-16T21:13:07.401Z,34.57
2019-01-16T21:16:02.359Z,33.17
2019-01-16T21:19:07.255Z,34.67
2019-01-16T21:21:56.778Z,34.37
2019-01-16T21:24:49.392Z,33.63
2019-01-16T21:27:37.467Z,37.10
2019-01-16T21:30:40.837Z,33.60
2019-01-16T21:33:29.098Z,31.67
2019-01-16T21:36:27.664Z,32.60
2019-01-16T21:39:26.521Z,31.37
2019-01-16T21:42:13.502Z,32.70
2019-01-16T21:45:07.142Z,34.00
2019-01-16T21:47:59.828Z,35.90
2019-01-16T21:50:48.266Z,33.60
2019-01-16T21:53:46.973Z,33.30
2019-01-16T21:56:42.686Z,33.53
2019-01-16T21:59:31.316Z,31.50
2019-01-16T22:02:26.608Z,31.57
2019-01-16T22:05:16.612Z,32.03
2019-01-16T22:08:05.445Z,29.43
2019-01-16T22:10:56.264Z,34.90
2019-01-16T22:13:41.187Z,30.23
2019-01-16T22:16:29.430Z,31.93
2019-01-16T22:19:17.502Z,30.07
2019-01-16T22:22:16.678Z,29.63
2019-01-16T22:25:06.617Z,30.43
2019-01-16T22:27:55.068Z,25.53
2019-01-16T22:30:50.986Z,29.20
2019-01-16T22:33:38.426Z,26.37
2019-01-16T22:36:36.911Z,27.37
2019-01-16T22:39:36.338Z,29.37
2019-01-16T22:42:31.723Z,28.80
2019-01-16T22:45:33.663Z,26.87
2019-01-16T22:48:15.743Z,27.20
2019-01-16T22:51:07.893Z,27.93
2019-01-16T22:54:00.165Z,25.17
2019-01-16T22:56:48.748Z,28.70
2019-01-16T22:59:36.813Z,26.83
2019-01-16T23:02:29.879Z,25.30
2019-01-16T23:05:27.765Z,26.80
2019-01-16T23:08:12.933Z,28.43
2019-01-16T23:11:01.419Z,28.90
2019-01-16T23:13:50.583Z,25.93
2019-01-16T23:16:55.251Z,27.63
2019-01-16T23:19:43.471Z,24.27
2019-01-16T23:22:36.105Z,25.93
2019-01-16T23:25:35.303Z,26.80
2019-01-16T23:28:25.299Z,28.13
2019-01-16T23:31:14.762Z,26.27
2019-01-16T23:33:52.999Z,26.37
2019-01-16T23:36:36.904Z,26.17
2019-01-16T23:39:26.712Z,24.77
2019-01-16T23:42:19.423Z,23.70
2019-01-16T23:45:07.864Z,23.97
2019-01-16T23:48:12.900Z,23.03
2019-01-16T23:51:01.172Z,22.93
2019-01-16T23:53:44.761Z,22.17
2019-01-16T23:56:27.720Z,21.67
2019-01-16T23:59:23.244Z,24.33
